Time;durP1;ratioP1;P1;durP2;ratioP2;P2;SDS_P1;SDS_P2;PMS_P1;PMS_P2;Temp;Humidity;BMP_temperature;BMP_pressure;BME280_temperature;BME280_humidity;BME280_pressure;Samples;Min_cycle;Max_cycle;Signal;HPM_P1;HPM_P2
2024/01/12 00:00:21;;;;;;;30.70;19.07;;;;;;;-0.59;69.99;98533.44;6177662;28;20203;-50
2024/01/12 00:03:23;;;;;;;31.30;18.60;;;;;;;-0.66;70.52;98538.44;6176926;28;20715;-50
2024/01/12 00:06:26;;;;;;;30.93;19.40;;;;;;;-0.69;71.08;98553.63;6178089;28;20234;-53
2024/01/12 00:09:28;;;;;;;32.97;19.50;;;;;;;-0.74;71.84;98563.69;6175707;28;20221;-49
2024/01/12 00:12:30;;;;;;;30.77;18.73;;;;;;;-0.68;71.14;98555.28;6173330;28;20208;-49
2024/01/12 00:15:33;;;;;;;33.40;20.50;;;;;;;-0.72;71.71;98552.13;6177861;28;20683;-47
2024/01/12 00:18:35;;;;;;;30.00;19.33;;;;;;;-0.72;71.29;98557.38;6182932;28;20208;-50
2024/01/12 00:21:43;;;;;;;33.10;20.27;;;;;;;-0.81;71.74;98534.72;6162147;28;20223;-49
2024/01/12 00:24:46;;;;;;;31.17;20.63;;;;;;;-0.80;72.25;98549.44;6181273;28;20217;-48
2024/01/12 00:27:49;;;;;;;29.87;18.33;;;;;;;-0.69;71.71;98559.69;6184646;28;20233;-50
2024/01/12 00:30:51;;;;;;;32.10;19.50;;;;;;;-0.71;71.61;98545.94;6175513;28;20213;-50
2024/01/12 00:33:54;;;;;;;31.97;19.90;;;;;;;-0.89;72.83;98540.66;6176286;28;20198;-48
2024/01/12 00:36:57;;;;;;;31.27;19.23;;;;;;;-0.82;72.74;98562.66;6182922;28;20194;-49
2024/01/12 00:39:59;;;;;;;33.17;20.33;;;;;;;-0.91;73.44;98560.94;6179244;28;20192;-50
2024/01/12 00:43:02;;;;;;;30.47;18.60;;;;;;;-0.91;73.00;98560.94;6175202;28;20224;-50
2024/01/12 00:46:06;;;;;;;30.33;18.80;;;;;;;-0.90;73.21;98561.75;6180116;28;20247;-48
2024/01/12 00:49:09;;;;;;;35.50;19.90;;;;;;;-0.94;74.00;98558.59;6154192;28;20206;-49
2024/01/12 00:52:11;;;;;;;33.03;18.67;;;;;;;-1.07;74.33;98569.41;6177673;28;20205;-48
2024/01/12 00:55:15;;;;;;;35.77;21.43;;;;;;;-1.12;74.37;98565.59;6169745;28;20194;-48
2024/01/12 00:58:17;;;;;;;34.00;20.33;;;;;;;-1.11;74.36;98565.44;6182050;28;20284;-50
2024/01/12 01:01:20;;;;;;;34.47;20.00;;;;;;;-1.09;75.07;98602.72;6176777;28;20783;-51
2024/01/12 01:04:25;;;;;;;37.10;22.43;;;;;;;-1.05;74.97;98596.22;6174290;28;20582;-48
2024/01/12 01:07:28;;;;;;;37.93;21.53;;;;;;;-1.11;76.11;98606.47;6178605;28;20564;-50
2024/01/12 01:10:30;;;;;;;38.50;22.03;;;;;;;-1.15;76.85;98600.69;6161771;28;20237;-49
2024/01/12 01:13:35;;;;;;;34.77;21.57;;;;;;;-1.25;76.58;98593.88;6176760;28;20206;-50
2024/01/12 01:16:38;;;;;;;39.00;22.23;;;;;;;-1.21;77.10;98616.97;6176852;28;20205;-50
2024/01/12 01:19:40;;;;;;;39.33;23.63;;;;;;;-1.22;77.20;98614.50;6172460;28;20228;-49
2024/01/12 01:22:43;;;;;;;36.50;22.67;;;;;;;-1.22;76.71;98617.13;6173721;28;20216;-49
2024/01/12 01:25:45;;;;;;;41.37;23.50;;;;;;;-1.27;77.04;98614.09;6176506;28;20189;-48
2024/01/12 01:28:48;;;;;;;40.43;23.93;;;;;;;-1.28;76.91;98617.66;6174616;28;20202;-49
2024/01/12 01:31:50;;;;;;;38.20;23.87;;;;;;;-1.39;79.06;98616.88;6160270;28;20194;-51
2024/01/12 01:34:53;;;;;;;42.10;24.73;;;;;;;-1.36;79.76;98627.06;6174173;28;20202;-48
2024/01/12 01:37:56;;;;;;;41.70;24.07;;;;;;;-1.38;79.03;98625.53;6170305;28;20205;-49
2024/01/12 01:40:58;;;;;;;46.80;25.13;;;;;;;-1.47;79.58;98629.84;6181763;28;20242;-49
2024/01/12 01:44:00;;;;;;;41.33;23.70;;;;;;;-1.47;81.13;98634.25;6175940;28;20206;-49
2024/01/12 01:47:03;;;;;;;41.53;23.17;;;;;;;-1.59;82.93;98641.41;6185594;28;20245;-50
2024/01/12 01:50:06;;;;;;;35.23;20.90;;;;;;;-1.69;84.90;98640.63;6180524;28;20275;-47
2024/01/12 01:53:10;;;;;;;43.07;24.57;;;;;;;-1.76;86.24;98648.19;6181203;28;20254;-50
2024/01/12 01:56:12;;;;;;;39.60;22.53;;;;;;;-1.75;87.22;98649.03;6183672;28;20205;-49
2024/01/12 01:59:15;;;;;;;37.63;23.00;;;;;;;-1.94;87.72;98619.34;6180696;28;20220;-48
2024/01/12 02:02:18;;;;;;;41.37;23.57;;;;;;;-1.85;89.19;98657.69;6185382;28;20194;-49
2024/01/12 02:05:22;;;;;;;44.13;24.60;;;;;;;-1.90;90.97;98653.84;6180872;28;20228;-48
2024/01/12 02:08:26;;;;;;;41.07;23.43;;;;;;;-1.95;93.05;98643.81;6188050;28;20205;-49
2024/01/12 02:11:29;;;;;;;40.07;23.20;;;;;;;-1.92;92.72;98651.38;6179951;28;20791;-51
2024/01/12 02:14:32;;;;;;;42.30;22.90;;;;;;;-2.05;94.46;98635.16;6187298;28;20208;-49
2024/01/12 02:17:36;;;;;;;38.63;22.30;;;;;;;-2.00;95.41;98647.81;6177010;28;20281;-49
2024/01/12 02:20:41;;;;;;;44.30;24.97;;;;;;;-2.14;98.14;98649.03;6183428;28;20335;-51
2024/01/12 02:23:45;;;;;;;39.10;23.43;;;;;;;-2.12;97.96;98641.88;6186957;28;20347;-48
2024/01/12 02:26:48;;;;;;;37.93;23.47;;;;;;;-2.19;98.77;98640.81;6186951;28;20232;-47
2024/01/12 02:29:52;;;;;;;40.33;24.23;;;;;;;-2.46;99.45;98625.84;6179946;28;20255;-48
2024/01/12 02:32:55;;;;;;;40.37;24.73;;;;;;;-2.38;99.84;98632.00;6182013;28;20202;-50
2024/01/12 02:35:59;;;;;;;39.83;25.13;;;;;;;-2.31;100.00;98647.94;6182485;28;20201;-50
2024/01/12 02:39:02;;;;;;;45.60;24.37;;;;;;;-2.34;100.00;98650.81;6183374;28;20240;-50
2024/01/12 02:42:05;;;;;;;40.77;24.37;;;;;;;-2.26;100.00;98637.94;6185047;28;20293;-46
2024/01/12 02:45:09;;;;;;;41.90;23.03;;;;;;;-2.28;100.00;98652.06;6179367;28;20253;-49
2024/01/12 02:48:13;;;;;;;39.93;24.63;;;;;;;-2.26;100.00;98650.16;6181702;28;20194;-49
2024/01/12 02:51:16;;;;;;;45.53;25.93;;;;;;;-2.43;100.00;98647.22;6187435;28;20296;-50
2024/01/12 02:54:19;;;;;;;40.10;23.90;;;;;;;-2.48;100.00;98631.16;6182031;28;20761;-49
2024/01/12 02:57:23;;;;;;;40.23;23.80;;;;;;;-2.46;100.00;98644.91;6161906;28;20213;-48
2024/01/12 03:00:30;;;;;;;46.23;24.73;;;;;;;-2.37;100.00;98648.47;6183568;28;20266;-49
2024/01/12 03:03:33;;;;;;;42.20;24.63;;;;;;;-2.42;100.00;98650.66;6175646;28;20210;-50
2024/01/12 03:06:35;;;;;;;42.57;24.07;;;;;;;-2.42;100.00;98655.88;6177605;28;20193;-47
2024/01/12 03:09:39;;;;;;;43.43;25.00;;;;;;;-2.33;100.00;98645.44;6174152;28;20726;-49
2024/01/12 03:12:41;;;;;;;45.43;24.63;;;;;;;-2.31;100.00;98652.34;6178787;28;20304;-45
2024/01/12 03:15:43;;;;;;;43.30;24.77;;;;;;;-2.30;100.00;98640.94;6175716;28;20544;-47
2024/01/12 03:18:50;;;;;;;42.30;24.53;;;;;;;-2.40;100.00;98635.72;6174676;28;20273;-49
2024/01/12 03:21:52;;;;;;;42.60;23.90;;;;;;;-2.43;100.00;98638.59;6171357;28;20194;-49
2024/01/12 03:24:54;;;;;;;40.67;23.13;;;;;;;-2.38;99.96;98634.59;6174889;28;20202;-48
2024/01/12 03:27:59;;;;;;;40.23;24.33;;;;;;;-2.34;99.53;98637.78;6165350;28;20564;-49
2024/01/12 03:31:02;;;;;;;40.67;22.60;;;;;;;-2.31;98.72;98639.31;6174090;28;20209;-48
2024/01/12 03:34:05;;;;;;;42.17;23.10;;;;;;;-2.34;99.52;98637.78;6171883;28;20609;-49
2024/01/12 03:37:07;;;;;;;40.70;23.07;;;;;;;-2.38;99.47;98632.00;6172933;28;20198;-51
2024/01/12 03:40:11;;;;;;;44.63;24.97;;;;;;;-2.41;100.00;98628.84;6168721;28;20217;-50
2024/01/12 03:43:13;;;;;;;39.93;23.30;;;;;;;-2.24;99.17;98633.38;6171911;28;20291;-49
2024/01/12 03:46:16;;;;;;;40.67;23.80;;;;;;;-2.28;99.07;98639.81;6156700;28;20399;-50
2024/01/12 03:49:19;;;;;;;43.93;24.13;;;;;;;-2.49;100.00;98615.66;6156734;28;20267;-49
2024/01/12 03:52:21;;;;;;;42.67;22.90;;;;;;;-2.25;99.08;98628.31;6157843;28;20260;-48
2024/01/12 03:55:23;;;;;;;45.17;25.13;;;;;;;-2.22;99.27;98625.41;6154092;28;20572;-47
2024/01/12 03:58:26;;;;;;;42.37;23.30;;;;;;;-2.28;99.16;98625.97;6156901;28;20252;-48
2024/01/12 04:01:28;;;;;;;46.43;25.57;;;;;;;-2.22;98.32;98631.44;6152141;28;20670;-49
2024/01/12 04:04:31;;;;;;;47.67;24.77;;;;;;;-2.29;98.57;98635.56;6143895;28;20195;-49
2024/01/12 04:07:33;;;;;;;43.23;24.37;;;;;;;-2.33;98.63;98629.81;6151279;28;20262;-50
2024/01/12 04:10:36;;;;;;;51.07;27.33;;;;;;;-2.36;97.84;98640.53;6157477;28;20202;-48
2024/01/12 04:13:38;;;;;;;45.17;25.67;;;;;;;-2.37;97.52;98649.28;6152325;28;20190;-49
2024/01/12 04:16:40;;;;;;;46.53;26.43;;;;;;;-2.57;98.31;98624.16;6153681;28;20234;-51
2024/01/12 04:19:43;;;;;;;44.77;26.77;;;;;;;-2.31;97.16;98642.72;6162872;28;20198;-50
2024/01/12 04:22:45;;;;;;;46.67;25.77;;;;;;;-2.34;97.30;98640.38;6155088;28;20654;-52
2024/01/12 04:25:47;;;;;;;46.33;26.03;;;;;;;-2.38;97.17;98663.31;6153648;28;20578;-51
2024/01/12 04:28:50;;;;;;;46.13;25.27;;;;;;;-2.40;98.24;98665.25;6153477;28;20198;-47
2024/01/12 04:31:52;;;;;;;46.23;26.20;;;;;;;-2.40;98.21;98664.41;6157878;28;20222;-48
2024/01/12 04:34:54;;;;;;;47.17;25.93;;;;;;;-2.42;98.48;98674.97;6147618;28;20217;-50
2024/01/12 04:37:59;;;;;;;45.87;27.50;;;;;;;-2.43;98.32;98670.72;6155238;28;20206;-50
2024/01/12 04:41:01;;;;;;;45.03;25.87;;;;;;;-2.41;97.79;98668.81;6157156;28;20191;-51
2024/01/12 04:44:04;;;;;;;50.07;27.63;;;;;;;-2.48;97.13;98652.03;6156674;28;20207;-50
2024/01/12 04:47:06;;;;;;;44.10;25.70;;;;;;;-2.47;98.71;98679.75;6178859;28;20237;-48
2024/01/12 04:50:09;;;;;;;44.70;26.80;;;;;;;-2.44;98.61;98660.44;6178767;28;20233;-51
2024/01/12 04:53:11;;;;;;;44.00;26.77;;;;;;;-2.45;98.46;98671.81;6173275;28;20724;-50
2024/01/12 04:56:14;;;;;;;41.53;24.23;;;;;;;-2.41;98.12;98670.59;6180425;28;20244;-46
2024/01/12 04:59:16;;;;;;;45.83;26.07;;;;;;;-2.28;97.17;98657.28;6182409;28;20201;-49
2024/01/12 05:02:18;;;;;;;42.97;24.90;;;;;;;-2.40;98.23;98672.25;6182416;28;20680;-50
2024/01/12 05:05:21;;;;;;;42.13;23.93;;;;;;;-2.30;97.50;98677.47;6177870;28;20745;-50
2024/01/12 05:08:23;;;;;;;42.93;24.63;;;;;;;-2.28;96.91;98675.53;6161755;28;20205;-50
2024/01/12 05:11:26;;;;;;;42.60;25.10;;;;;;;-2.20;96.38;98673.09;6174297;28;20226;-48
2024/01/12 05:14:28;;;;;;;40.40;24.20;;;;;;;-2.29;97.06;98669.50;6179570;28;20201;-51
2024/01/12 05:17:30;;;;;;;42.07;25.70;;;;;;;-2.42;97.39;98656.69;6179740;28;20225;-50
2024/01/12 05:20:33;;;;;;;47.93;25.87;;;;;;;-2.35;98.26;98676.09;6177100;28;20198;-48
2024/01/12 05:23:36;;;;;;;45.77;25.67;;;;;;;-2.34;98.86;98667.28;6174848;28;20566;-49
2024/01/12 05:26:38;;;;;;;45.93;24.73;;;;;;;-2.38;99.14;98678.13;6178588;28;20711;-47
2024/01/12 05:29:41;;;;;;;45.70;24.83;;;;;;;-2.50;99.83;98653.97;6175909;28;20272;-50
2024/01/12 05:32:44;;;;;;;42.60;24.77;;;;;;;-2.35;99.65;98683.91;6178189;28;20781;-48
2024/01/12 05:35:46;;;;;;;45.87;26.37;;;;;;;-2.65;100.00;98652.72;6178411;28;20276;-51
2024/01/12 05:38:49;;;;;;;44.77;25.83;;;;;;;-2.53;100.00;98675.09;6181641;28;20201;-48
2024/01/12 05:41:52;;;;;;;40.80;25.07;;;;;;;-2.47;100.00;98676.34;6180702;28;20198;-46
2024/01/12 05:44:54;;;;;;;43.67;25.80;;;;;;;-2.44;100.00;98673.47;6185069;28;20744;-46
2024/01/12 05:47:57;;;;;;;43.20;25.37;;;;;;;-2.49;100.00;98686.09;6183895;28;20222;-49
2024/01/12 05:51:00;;;;;;;44.43;25.67;;;;;;;-2.53;100.00;98695.97;6188170;28;20210;-45
2024/01/12 05:54:04;;;;;;;45.90;27.20;;;;;;;-2.40;100.00;98688.72;6180251;28;20923;-50
2024/01/12 05:57:07;;;;;;;43.50;25.43;;;;;;;-2.46;100.00;98691.88;6178137;28;20555;-50
2024/01/12 06:00:10;;;;;;;50.77;27.20;;;;;;;-2.50;100.00;98700.09;6182693;28;20202;-50
2024/01/12 06:03:12;;;;;;;40.37;25.47;;;;;;;-2.39;100.00;98700.81;6176541;28;20783;-50
2024/01/12 06:06:15;;;;;;;45.47;26.60;;;;;;;-2.39;100.00;98711.25;6182160;28;20208;-48
2024/01/12 06:09:17;;;;;;;46.63;26.03;;;;;;;-2.62;100.00;98691.53;6177908;28;20197;-48
2024/01/12 06:12:19;;;;;;;44.57;25.87;;;;;;;-2.57;100.00;98714.63;6167719;28;20262;-48
2024/01/12 06:15:21;;;;;;;43.77;25.27;;;;;;;-2.59;100.00;98717.38;6174275;28;20572;-48
2024/01/12 06:18:24;;;;;;;40.17;26.00;;;;;;;-2.54;100.00;98716.97;6178406;28;20280;-47
2024/01/12 06:21:26;;;;;;;40.83;25.30;;;;;;;-2.61;100.00;98720.13;6178514;28;20197;-47
2024/01/12 06:24:29;;;;;;;43.73;25.43;;;;;;;-2.58;100.00;98726.00;6186512;28;20194;-46
2024/01/12 06:27:31;;;;;;;39.77;24.13;;;;;;;-2.60;100.00;98721.75;6175356;28;20267;-49
2024/01/12 06:30:33;;;;;;;40.17;25.00;;;;;;;-2.57;100.00;98718.03;6151382;28;20225;-47
2024/01/12 06:33:35;;;;;;;44.67;24.23;;;;;;;-2.57;100.00;98730.28;6177885;28;20202;-47
2024/01/12 06:36:42;;;;;;;37.57;23.77;;;;;;;-2.54;100.00;98730.00;6179773;28;20671;-47
2024/01/12 06:39:45;;;;;;;42.27;23.33;;;;;;;-2.57;100.00;98725.88;6174082;28;20198;-49
2024/01/12 06:42:47;;;;;;;42.73;25.83;;;;;;;-2.40;100.00;98738.28;6172694;28;20197;-49
2024/01/12 06:45:49;;;;;;;44.27;25.67;;;;;;;-2.53;100.00;98740.31;6178068;28;20721;-51
2024/01/12 06:48:51;;;;;;;44.00;25.50;;;;;;;-2.26;100.00;98742.31;6157409;28;20742;-51
2024/01/12 06:51:54;;;;;;;41.43;25.33;;;;;;;-2.53;100.00;98716.84;6183152;28;20201;-50
2024/01/12 06:54:56;;;;;;;41.33;25.37;;;;;;;-2.40;100.00;98742.69;6173889;28;20689;-50
2024/01/12 06:57:58;;;;;;;40.77;23.87;;;;;;;-2.29;100.00;98739.97;6178280;28;21017;-49
2024/01/12 07:01:00;;;;;;;42.43;23.93;;;;;;;-2.40;100.00;98730.47;6174075;28;20198;-49
2024/01/12 07:04:03;;;;;;;45.33;24.70;;;;;;;-2.32;100.00;98750.66;6176585;28;20193;-47
2024/01/12 07:07:05;;;;;;;39.90;23.93;;;;;;;-2.46;100.00;98749.28;6171542;28;20205;-50
2024/01/12 07:10:09;;;;;;;43.30;23.60;;;;;;;-2.34;100.00;98742.97;6178261;28;20212;-49
2024/01/12 07:13:11;;;;;;;37.63;21.13;;;;;;;-2.39;100.00;98749.56;6175619;28;20217;-50
2024/01/12 07:16:13;;;;;;;37.07;22.17;;;;;;;-2.45;100.00;98750.91;6180078;28;20269;-48
2024/01/12 07:19:16;;;;;;;38.87;22.33;;;;;;;-2.23;100.00;98755.06;6177164;28;20293;-51
2024/01/12 07:22:18;;;;;;;40.60;22.33;;;;;;;-2.13;99.40;98760.31;6177401;28;20198;-49
2024/01/12 07:25:21;;;;;;;38.43;22.57;;;;;;;-2.20;98.25;98775.69;6175474;28;20733;-47
2024/01/12 07:28:24;;;;;;;38.00;22.63;;;;;;;-2.31;99.76;98778.44;6176183;28;20603;-49
2024/01/12 07:31:26;;;;;;;35.73;22.07;;;;;;;-2.24;99.42;98769.09;6175959;28;20209;-51
2024/01/12 07:34:29;;;;;;;38.37;21.60;;;;;;;-2.28;100.00;98775.53;6178164;28;20190;-49
2024/01/12 07:37:32;;;;;;;35.93;20.63;;;;;;;-2.38;100.00;98761.63;6173930;28;20684;-50
2024/01/12 07:40:34;;;;;;;43.20;21.60;;;;;;;-2.20;98.37;98775.69;6172386;28;20673;-49
2024/01/12 07:43:44;;;;;;;36.93;20.93;;;;;;;-2.17;98.43;98787.63;6180816;28;20574;-48
2024/01/12 07:46:55;;;;;;;34.57;20.30;;;;;;;-2.10;98.05;98788.78;6174881;28;20717;-50
2024/01/12 07:49:57;;;;;;;36.10;20.87;;;;;;;-2.22;98.88;98789.81;6171553;28;20292;-49
2024/01/12 07:52:59;;;;;;;35.77;21.13;;;;;;;-2.13;97.03;98779.41;6181959;28;20580;-51
2024/01/12 07:56:02;;;;;;;32.97;20.20;;;;;;;-2.18;97.92;98789.44;6170561;28;20660;-47
2024/01/12 07:59:05;;;;;;;34.27;20.33;;;;;;;-2.18;98.29;98797.25;6169248;28;20280;-49
2024/01/12 08:02:08;;;;;;;33.47;20.13;;;;;;;-1.98;96.78;98800.75;6174964;28;20304;-51
2024/01/12 08:05:11;;;;;;;38.57;22.13;;;;;;;-1.95;96.23;98791.81;6245598;28;20222;-49
2024/01/12 08:08:14;;;;;;;37.93;21.87;;;;;;;-2.04;96.65;98801.28;6183313;28;20204;-47
2024/01/12 08:11:17;;;;;;;40.03;22.80;;;;;;;-2.06;96.92;98805.81;6177657;28;20205;-50
2024/01/12 08:14:36;;;;;;;41.47;21.87;;;;;;;-1.95;96.18;98810.94;6162634;28;20201;-46
2024/01/12 08:17:38;;;;;;;34.03;21.20;;;;;;;-2.06;96.54;98815.44;6175174;28;20650;-47
2024/01/12 08:20:41;;;;;;;40.07;22.70;;;;;;;-2.02;96.24;98825.50;6180591;28;20218;-50
2024/01/12 08:23:44;;;;;;;38.63;21.50;;;;;;;-2.17;97.38;98826.78;6176316;28;20204;-48
2024/01/12 08:26:47;;;;;;;38.70;22.97;;;;;;;-2.19;99.20;98823.50;6177901;28;20685;-48
2024/01/12 08:29:51;;;;;;;38.57;23.43;;;;;;;-2.11;97.34;98821.88;6175122;28;20913;-52
2024/01/12 08:32:54;;;;;;;39.30;23.10;;;;;;;-2.00;96.94;98828.78;6178801;28;20206;-49
2024/01/12 08:35:56;;;;;;;38.57;23.17;;;;;;;-2.24;96.26;98803.03;6176543;28;20512;-48
2024/01/12 08:38:59;;;;;;;41.47;23.13;;;;;;;-2.01;95.80;98834.97;6172896;28;20206;-51
2024/01/12 08:42:02;;;;;;;41.53;22.87;;;;;;;-2.12;96.68;98835.06;6172944;28;20904;-50
2024/01/12 08:45:05;;;;;;;37.00;22.13;;;;;;;-2.12;98.38;98835.06;6175269;28;20311;-50
2024/01/12 08:48:07;;;;;;;43.33;24.13;;;;;;;-1.94;96.06;98832.63;6174698;28;20201;-50
2024/01/12 08:51:10;;;;;;;39.93;23.07;;;;;;;-2.08;95.15;98826.81;6174973;28;20214;-47
2024/01/12 08:54:12;;;;;;;40.67;23.00;;;;;;;-2.21;95.51;98823.66;6195571;28;20206;-46
2024/01/12 08:57:15;;;;;;;43.50;24.40;;;;;;;-2.05;96.73;98844.03;6173497;28;20198;-50
2024/01/12 09:00:17;;;;;;;38.83;22.67;;;;;;;-2.07;95.94;98848.53;6177310;28;20649;-49
2024/01/12 09:03:19;;;;;;;39.87;23.17;;;;;;;-2.10;96.71;98852.25;6171669;28;20684;-55
2024/01/12 09:06:23;;;;;;;42.43;22.93;;;;;;;-2.09;97.10;98855.69;6177342;28;20207;-49
2024/01/12 09:09:26;;;;;;;40.63;23.63;;;;;;;-1.99;96.19;98847.88;6170471;28;20197;-49
2024/01/12 09:12:28;;;;;;;39.40;22.00;;;;;;;-2.00;96.15;98857.50;6174521;28;20698;-51
2024/01/12 09:15:31;;;;;;;36.00;21.90;;;;;;;-1.91;94.16;98853.28;6151758;28;20210;-51
2024/01/12 09:18:33;;;;;;;38.43;22.77;;;;;;;-2.04;95.81;98855.28;6173685;28;20872;-49
2024/01/12 09:21:35;;;;;;;42.70;22.37;;;;;;;-2.00;96.18;98859.28;6172333;28;20198;-52
2024/01/12 09:24:38;;;;;;;41.93;23.00;;;;;;;-2.00;95.58;98864.50;6176608;28;20555;-49
2024/01/12 09:27:40;;;;;;;43.97;23.10;;;;;;;-2.15;96.73;98859.66;6173767;28;20190;-48
2024/01/12 09:30:42;;;;;;;42.40;23.67;;;;;;;-1.95;95.59;98864.94;6173448;28;20209;-49
2024/01/12 09:33:44;;;;;;;44.23;23.77;;;;;;;-2.04;96.94;98863.94;6166872;28;20454;-52
2024/01/12 09:36:47;;;;;;;40.87;22.77;;;;;;;-2.23;97.71;98841.19;6174977;28;20207;-51
2024/01/12 09:39:50;;;;;;;44.57;22.63;;;;;;;-1.96;95.89;98853.66;6171667;28;20202;-49
2024/01/12 09:42:56;;;;;;;36.80;22.40;;;;;;;-1.97;95.22;98872.91;6172507;28;20273;-48
2024/01/12 09:46:00;;;;;;;39.60;22.73;;;;;;;-1.94;96.03;98870.00;6169231;28;20233;-48
2024/01/12 09:49:03;;;;;;;40.53;22.80;;;;;;;-1.99;95.86;98872.19;6168617;28;20251;-49
2024/01/12 09:52:07;;;;;;;38.87;21.63;;;;;;;-1.92;95.22;98868.13;6171367;28;20580;-50
2024/01/12 09:55:10;;;;;;;40.70;21.70;;;;;;;-1.91;95.64;98858.50;6185812;28;20272;-48
2024/01/12 09:58:13;;;;;;;41.77;22.83;;;;;;;-1.84;94.40;98857.81;6165308;28;20565;-51
2024/01/12 10:01:17;;;;;;;36.80;21.80;;;;;;;-1.99;94.40;98840.03;6169119;28;20770;-48
2024/01/12 10:04:20;;;;;;;37.63;22.13;;;;;;;-1.95;95.20;98867.53;6167716;28;20198;-48
2024/01/12 10:07:25;;;;;;;36.00;20.67;;;;;;;-1.93;96.13;98842.94;6172634;28;20653;-50
2024/01/12 10:10:27;;;;;;;38.77;21.53;;;;;;;-2.03;95.52;98828.22;6168171;28;20207;-46
2024/01/12 10:13:30;;;;;;;33.17;20.80;;;;;;;-1.78;94.19;98853.81;6172284;28;20218;-50
2024/01/12 10:16:32;;;;;;;36.13;20.60;;;;;;;-1.81;94.58;98835.84;6177091;28;20248;-50
2024/01/12 10:19:34;;;;;;;34.83;20.80;;;;;;;-1.76;94.50;98832.81;6180129;28;20201;-50
2024/01/12 10:22:37;;;;;;;34.33;20.70;;;;;;;-1.85;94.69;98824.81;6161449;28;20552;-50
2024/01/12 10:25:39;;;;;;;33.97;20.43;;;;;;;-1.83;95.89;98835.13;6176417;28;20685;-51
2024/01/12 10:28:42;;;;;;;32.90;19.47;;;;;;;-1.82;95.67;98827.19;6181514;28;20206;-50
2024/01/12 10:31:45;;;;;;;33.63;19.17;;;;;;;-1.76;95.29;98823.19;6174741;28;20764;-47
2024/01/12 10:34:48;;;;;;;34.83;20.73;;;;;;;-1.74;95.31;98825.66;6144353;28;20701;-52
2024/01/12 10:37:56;;;;;;;33.20;20.13;;;;;;;-1.73;95.61;98827.31;6178028;28;20841;-50
2024/01/12 10:41:00;;;;;;;34.60;20.23;;;;;;;-1.68;94.35;98809.44;6177421;28;20200;-50
2024/01/12 10:44:06;;;;;;;33.97;19.73;;;;;;;-1.70;93.68;98812.19;6159548;28;20254;-50
2024/01/12 10:47:17;;;;;;;35.20;19.97;;;;;;;-1.69;94.22;98811.22;6175831;28;20238;-47
2024/01/12 10:50:23;;;;;;;35.53;20.73;;;;;;;-1.56;93.82;98809.19;6181630;28;20206;-48
2024/01/12 10:53:36;;;;;;;33.83;19.40;;;;;;;-1.48;92.85;98807.66;6193379;28;20294;-51
2024/01/12 10:56:42;;;;;;;32.10;19.20;;;;;;;-1.47;91.69;98797.09;6176215;28;20205;-49
2024/01/12 10:59:44;;;;;;;34.57;19.90;;;;;;;-1.42;91.27;98802.72;6180076;28;20285;-48
2024/01/12 11:02:49;;;;;;;32.17;18.73;;;;;;;-1.45;91.83;98799.56;6176322;28;20194;-49
2024/01/12 11:05:53;;;;;;;32.93;18.63;;;;;;;-1.46;91.88;98793.50;6170199;28;20350;-49
2024/01/12 11:08:57;;;;;;;27.83;17.23;;;;;;;-1.44;92.94;98795.97;6176685;28;20198;-51
2024/01/12 11:12:07;;;;;;;31.07;17.97;;;;;;;-1.58;91.20;98748.41;6180652;28;20768;-50
2024/01/12 11:15:10;;;;;;;32.20;18.13;;;;;;;-1.32;90.50;98780.03;6173862;28;20722;-51
2024/01/12 11:18:13;;;;;;;34.60;19.30;;;;;;;-1.35;91.07;98780.28;6177837;28;20703;-52
2024/01/12 11:21:24;;;;;;;32.30;18.73;;;;;;;-1.23;90.35;98764.44;6178467;28;20612;-50
2024/01/12 11:24:28;;;;;;;32.47;17.67;;;;;;;-1.26;91.16;98762.13;6173414;28;20697;-50
2024/01/12 11:27:32;;;;;;;28.87;17.10;;;;;;;-1.25;89.93;98746.28;6177913;28;20190;-50
2024/01/12 11:30:41;;;;;;;29.20;17.07;;;;;;;-1.20;89.73;98766.78;6170167;28;20193;-51
2024/01/12 11:33:45;;;;;;;30.23;16.63;;;;;;;-1.08;89.02;98750.00;6161712;28;20228;-51
2024/01/12 11:36:58;;;;;;;31.80;17.17;;;;;;;-1.20;89.79;98748.50;6174471;28;20190;-49
2024/01/12 11:40:07;;;;;;;30.77;16.50;;;;;;;-1.25;90.68;98738.47;6177918;28;20210;-47
2024/01/12 11:43:18;;;;;;;31.17;17.77;;;;;;;-1.19;89.89;98735.28;6184919;28;20276;-50
2024/01/12 11:46:23;;;;;;;27.90;15.70;;;;;;;-1.13;88.36;98734.72;6142997;28;20325;-50
2024/01/12 11:49:25;;;;;;;31.23;16.63;;;;;;;-1.13;88.77;98737.34;6171723;28;20257;-50
2024/01/12 11:52:28;;;;;;;30.63;16.50;;;;;;;-1.19;88.59;98732.66;6177935;28;20715;-49
2024/01/12 11:55:32;;;;;;;26.23;17.37;;;;;;;-1.07;88.45;98733.34;6174933;28;20189;-47
2024/01/12 11:58:37;;;;;;;31.33;17.63;;;;;;;-1.06;88.34;98724.50;6167445;28;20201;-48
2024/01/12 12:01:39;;;;;;;27.27;15.77;;;;;;;-1.05;88.79;98729.59;6171322;28;20332;-50
2024/01/12 12:04:42;;;;;;;25.73;15.33;;;;;;;-1.00;89.07;98723.94;6174531;28;20201;-50
2024/01/12 12:07:45;;;;;;;28.83;14.83;;;;;;;-0.89;88.57;98721.13;6157415;28;20304;-51
2024/01/12 12:10:47;;;;;;;25.43;14.87;;;;;;;-0.86;87.69;98714.81;6171411;28;20255;-49
2024/01/12 12:13:51;;;;;;;25.50;14.70;;;;;;;-0.90;85.78;98687.28;6185229;28;20210;-50
2024/01/12 12:17:03;;;;;;;23.93;14.70;;;;;;;-0.75;85.85;98712.00;6173224;28;20198;-47
2024/01/12 12:20:44;;;;;;;28.50;15.17;;;;;;;-0.80;85.26;98707.19;6160203;28;20251;-49
2024/01/12 12:24:11;;;;;;;24.40;15.37;;;;;;;-0.94;86.01;98681.50;6184623;28;20192;-48
2024/01/12 12:28:21;;;;;;;25.80;15.03;;;;;;;-0.92;86.76;98692.66;6194848;28;20201;-50
2024/01/12 12:32:26;;;;;;;27.40;15.37;;;;;;;-0.91;87.06;98686.47;6173353;28;20218;-51
2024/01/12 12:36:17;;;;;;;24.40;13.87;;;;;;;-0.79;84.85;98687.09;6183953;28;20214;-52
2024/01/12 12:39:58;;;;;;;27.57;15.47;;;;;;;-0.95;87.41;98677.25;6188001;28;20239;-48
2024/01/12 12:43:52;;;;;;;27.63;15.13;;;;;;;-0.79;86.06;98679.25;6179453;28;20190;-52
2024/01/12 12:47:36;;;;;;;28.13;15.67;;;;;;;-0.85;85.84;98672.00;6182273;28;20252;-50
2024/01/12 12:51:06;;;;;;;29.20;15.80;;;;;;;-1.05;86.87;98664.22;6181114;28;20206;-49
2024/01/12 12:54:33;;;;;;;30.10;17.27;;;;;;;-0.98;88.50;98667.09;6182931;28;20182;-50
2024/01/12 12:58:18;;;;;;;29.03;17.23;;;;;;;-0.82;86.82;98666.47;6182374;28;20210;-49
2024/01/12 13:01:52;;;;;;;31.93;16.57;;;;;;;-0.93;88.44;98677.13;6194257;28;20189;-50
2024/01/12 13:05:23;;;;;;;30.40;17.13;;;;;;;-0.89;87.68;98676.69;6171864;28;20324;-46
2024/01/12 13:08:28;;;;;;;31.87;17.50;;;;;;;-0.95;87.83;98674.66;6191910;28;20238;-48
2024/01/12 13:11:32;;;;;;;28.93;17.53;;;;;;;-0.92;86.97;98671.75;6180682;28;20209;-49
2024/01/12 13:14:34;;;;;;;25.70;16.30;;;;;;;-1.06;87.75;98654.72;6174126;28;20685;-47
2024/01/12 13:17:37;;;;;;;31.80;16.43;;;;;;;-1.12;87.64;98650.09;6175292;28;20198;-52
2024/01/12 13:20:40;;;;;;;29.20;16.93;;;;;;;-0.90;86.69;98656.72;6179431;23;20245;-49
2024/01/12 13:23:44;;;;;;;30.60;17.13;;;;;;;-0.85;87.13;98675.41;6179321;28;20267;-48
2024/01/12 13:27:11;;;;;;;29.10;15.73;;;;;;;-0.98;87.16;98664.50;6166485;28;20194;-47
2024/01/12 13:30:33;;;;;;;32.70;17.27;;;;;;;-0.94;86.95;98675.47;6195202;28;20190;-50
2024/01/12 13:33:36;;;;;;;31.13;16.33;;;;;;;-0.88;86.57;98665.28;6182519;28;20205;-49
2024/01/12 13:36:55;;;;;;;32.30;16.57;;;;;;;-0.95;87.36;98660.75;6186024;28;20575;-52
2024/01/12 13:40:17;;;;;;;28.30;16.70;;;;;;;-0.83;84.98;98663.03;6179642;28;20201;-53
2024/01/12 13:43:19;;;;;;;27.70;15.80;;;;;;;-0.95;85.90;98668.59;6182781;28;20228;-47
2024/01/12 13:46:25;;;;;;;29.60;15.30;;;;;;;-0.88;86.35;98657.41;6187384;28;20296;-50
2024/01/12 13:49:29;;;;;;;30.13;16.47;;;;;;;-0.97;85.20;98636.53;6198092;28;20328;-50
2024/01/12 13:52:32;;;;;;;29.57;15.57;;;;;;;-1.00;86.25;98660.34;6184187;28;20250;-51
2024/01/12 13:55:35;;;;;;;32.07;16.63;;;;;;;-0.96;86.47;98669.56;6177356;28;20206;-49
2024/01/12 13:58:39;;;;;;;31.93;16.93;;;;;;;-1.00;85.99;98645.50;6185723;28;20293;-49
2024/01/12 14:01:43;;;;;;;31.23;17.60;;;;;;;-0.78;85.01;98678.31;6181300;28;20741;-51
2024/01/12 14:04:47;;;;;;;27.57;17.67;;;;;;;-1.06;85.43;98657.34;6193818;28;20778;-49
2024/01/12 14:08:30;;;;;;;30.40;16.87;;;;;;;-0.81;85.07;98686.44;6183911;28;20572;-51